Time,TemperatureF,DewpointF,PressureIn,WindDirection,WindDirectionDegrees,WindSpeedMPH,WindSpeedGustMPH,Humidity,HourlyPrecipIn,Conditions,Clouds,dailyrainin,SoftwareType,DateUTC
2013-09-09 00:04:00,67.3,65.0,29.95,ENE,76,0.0,4.0,92,0.00,,,0.00,weatherlink.com 1.10,2013-09-09 05:04:00,
2013-09-09 00:19:00,67.3,65.0,29.95,NNE,32,0.0,5.0,92,0.00,,,0.00,weatherlink.com 1.10,2013-09-09 05:19:00,
2013-09-09 00:34:00,67.1,65.0,29.95,North,5,0.0,4.0,92,0.00,,,0.00,weatherlink.com 1.10,2013-09-09 05:34:00,
2013-09-09 00:49:00,67.0,65.0,29.95,NNE,15,0.0,2.0,92,0.00,,,0.00,weatherlink.com 1.10,2013-09-09 05:49:00,
2013-09-09 01:04:00,66.7,65.0,29.94,North,5,1.0,4.0,93,0.00,,,0.00,weatherlink.com 1.10,2013-09-09 06:04:00,
2013-09-09 01:19:00,66.4,64.0,29.94,North,360,0.0,4.0,93,0.00,,,0.00,weatherlink.com 1.10,2013-09-09 06:19:00,
2013-09-09 01:34:00,66.1,64.0,29.94,NNE,17,0.0,6.0,94,0.00,,,0.00,weatherlink.com 1.10,2013-09-09 06:34:00,
2013-09-09 01:49:00,65.8,64.0,29.93,North,11,2.0,4.0,94,0.00,,,0.00,weatherlink.com 1.10,2013-09-09 06:49:00,
2013-09-09 02:04:00,65.7,64.0,29.93,North,360,0.0,4.0,95,0.00,,,0.00,weatherlink.com 1.10,2013-09-09 07:04:00,
2013-09-09 02:19:00,65.7,64.0,29.93,North,360,1.0,1.0,95,0.00,,,0.00,weatherlink.com 1.10,2013-09-09 07:19:00,
2013-09-09 02:34:00,65.7,64.0,29.93,North,349,0.0,1.0,95,0.00,,,0.00,weatherlink.com 1.10,2013-09-09 07:34:00,
2013-09-09 02:49:00,65.6,65.0,29.92,NNE,15,0.0,1.0,96,0.00,,,0.00,weatherlink.com 1.10,2013-09-09 07:49:00,
2013-09-09 03:04:00,65.6,65.0,29.93,NNE,15,0.0,0.0,96,0.00,,,0.00,weatherlink.com 1.10,2013-09-09 08:04:00,
2013-09-09 03:19:00,65.6,65.0,29.92,NNE,16,0.0,1.0,96,0.00,,,0.00,weatherlink.com 1.10,2013-09-09 08:19:00,
2013-09-09 03:34:00,65.6,65.0,29.92,NNE,16,0.0,0.0,96,0.00,,,0.00,weatherlink.com 1.10,2013-09-09 08:34:00,
2013-09-09 03:50:00,65.7,65.0,29.91,East,101,0.0,4.0,96,0.00,,,0.00,weatherlink.com 1.10,2013-09-09 08:50:00,
2013-09-09 04:05:00,65.7,65.0,29.91,SE,126,0.0,2.0,96,0.00,,,0.00,weatherlink.com 1.10,2013-09-09 09:05:00,
2013-09-09 04:20:00,65.9,65.0,29.91,SSE,155,0.0,2.0,97,0.00,,,0.00,weatherlink.com 1.10,2013-09-09 09:20:00,
2013-09-09 04:35:00,66.1,65.0,29.90,SE,138,3.0,4.0,97,0.00,,,0.00,weatherlink.com 1.10,2013-09-09 09:35:00,
2013-09-09 04:50:00,66.5,66.0,29.90,SE,138,0.0,4.0,97,0.00,,,0.00,weatherlink.com 1.10,2013-09-09 09:50:00,
2013-09-09 07:21:00,67.1,66.0,29.90,South,169,0.0,0.0,97,0.00,,,0.00,weatherlink.com 1.10,2013-09-09 12:21:00,
2013-09-09 07:34:00,67.6,67.0,29.90,South,169,2.0,2.0,97,0.00,,,0.00,weatherlink.com 1.10,2013-09-09 12:34:00,
2013-09-09 07:49:00,68.2,67.0,29.90,South,177,0.0,2.0,97,0.00,,,0.00,weatherlink.com 1.10,2013-09-09 12:49:00,
2013-09-09 08:04:00,68.7,68.0,29.90,South,171,2.0,3.0,98,0.00,,,0.00,weatherlink.com 1.10,2013-09-09 13:04:00,
2013-09-09 08:19:00,69.4,69.0,29.90,South,178,1.0,3.0,97,0.00,,,0.00,weatherlink.com 1.10,2013-09-09 13:19:00,
2013-09-09 08:34:00,70.0,69.0,29.89,SSE,166,4.0,5.0,97,0.00,,,0.00,weatherlink.com 1.10,2013-09-09 13:34:00,
2013-09-09 08:49:00,70.6,70.0,29.90,SSW,202,3.0,5.0,97,0.00,,,0.00,weatherlink.com 1.10,2013-09-09 13:49:00,
2013-09-09 09:04:00,71.3,70.0,29.89,SSE,164,3.0,6.0,96,0.00,,,0.00,weatherlink.com 1.10,2013-09-09 14:04:00,
2013-09-09 09:19:00,72.3,71.0,29.88,SE,138,4.0,6.0,95,0.00,,,0.00,weatherlink.com 1.10,2013-09-09 14:19:00,
2013-09-09 09:35:00,73.3,71.0,29.88,South,183,3.0,6.0,93,0.00,,,0.00,weatherlink.com 1.10,2013-09-09 14:35:00,
2013-09-09 09:50:00,74.1,72.0,29.88,SW,215,3.0,6.0,92,0.00,,,0.00,weatherlink.com 1.10,2013-09-09 14:50:00,
2013-09-09 10:05:00,75.1,72.0,29.88,South,191,3.0,8.0,89,0.00,,,0.00,weatherlink.com 1.10,2013-09-09 15:05:00,
2013-09-09 10:20:00,76.3,73.0,29.89,South,178,0.0,5.0,88,0.00,,,0.00,weatherlink.com 1.10,2013-09-09 15:20:00,
2013-09-09 10:35:00,77.5,73.0,29.89,South,169,1.0,4.0,86,0.00,,,0.00,weatherlink.com 1.10,2013-09-09 15:35:00,
2013-09-09 10:50:00,78.7,73.0,29.89,SW,227,0.0,5.0,83,0.00,,,0.00,weatherlink.com 1.10,2013-09-09 15:50:00,
2013-09-09 11:05:00,79.9,74.0,29.88,SW,215,1.0,3.0,83,0.00,,,0.00,weatherlink.com 1.10,2013-09-09 16:05:00,
2013-09-09 11:20:00,80.7,74.0,29.88,SW,219,2.0,5.0,79,0.00,,,0.00,weatherlink.com 1.10,2013-09-09 16:20:00,
2013-09-09 11:35:00,81.4,74.0,29.88,South,188,1.0,4.0,79,0.00,,,0.00,weatherlink.com 1.10,2013-09-09 16:35:00,
2013-09-09 11:50:00,82.4,75.0,29.88,SSW,205,1.0,4.0,77,0.00,,,0.00,weatherlink.com 1.10,2013-09-09 16:50:00,
2013-09-09 12:05:00,83.5,75.0,29.88,SSE,155,4.0,5.0,75,0.00,,,0.00,weatherlink.com 1.10,2013-09-09 17:05:00,
2013-09-09 12:20:00,84.1,75.0,29.86,South,174,2.0,5.0,73,0.00,,,0.00,weatherlink.com 1.10,2013-09-09 17:20:00,
2013-09-09 12:35:00,85.3,75.0,29.86,SSW,195,2.0,6.0,72,0.00,,,0.00,weatherlink.com 1.10,2013-09-09 17:35:00,
2013-09-09 12:50:00,86.1,75.0,29.85,South,188,2.0,5.0,70,0.00,,,0.00,weatherlink.com 1.10,2013-09-09 17:50:00,
2013-09-09 13:05:00,86.9,75.0,29.85,SSW,192,1.0,5.0,68,0.00,,,0.00,weatherlink.com 1.10,2013-09-09 18:05:00,
2013-09-09 13:20:00,87.3,76.0,29.85,SW,223,3.0,7.0,68,0.00,,,0.00,weatherlink.com 1.10,2013-09-09 18:20:00,
2013-09-09 13:35:00,87.8,76.0,29.84,SSW,204,3.0,5.0,67,0.00,,,0.00,weatherlink.com 1.10,2013-09-09 18:35:00,
2013-09-09 13:50:00,88.8,76.0,29.84,South,184,5.0,6.0,65,0.00,,,0.00,weatherlink.com 1.10,2013-09-09 18:50:00,
2013-09-09 14:05:00,89.2,75.0,29.84,SSW,200,3.0,6.0,64,0.00,,,0.00,weatherlink.com 1.10,2013-09-09 19:05:00,
2013-09-09 14:21:00,89.8,76.0,29.83,South,178,3.0,8.0,63,0.00,,,0.00,weatherlink.com 1.10,2013-09-09 19:21:00,
2013-09-09 14:36:00,90.1,75.0,29.83,SSW,200,4.0,6.0,61,0.00,,,0.00,weatherlink.com 1.10,2013-09-09 19:36:00,
2013-09-09 14:51:00,90.7,75.0,29.82,South,188,5.0,6.0,60,0.00,,,0.00,weatherlink.com 1.10,2013-09-09 19:51:00,
2013-09-09 15:06:00,91.0,76.0,29.82,South,170,4.0,9.0,62,0.00,,,0.00,weatherlink.com 1.10,2013-09-09 20:06:00,
2013-09-09 15:21:00,91.5,75.0,29.81,SW,228,3.0,7.0,58,0.00,,,0.00,weatherlink.com 1.10,2013-09-09 20:21:00,
2013-09-09 15:36:00,92.0,76.0,29.81,South,172,3.0,7.0,59,0.00,,,0.00,weatherlink.com 1.10,2013-09-09 20:36:00,
2013-09-09 15:51:00,92.0,75.0,29.81,SW,229,4.0,7.0,57,0.00,,,0.00,weatherlink.com 1.10,2013-09-09 20:51:00,
2013-09-09 16:06:00,91.7,74.0,29.81,SSW,196,3.0,8.0,57,0.00,,,0.00,weatherlink.com 1.10,2013-09-09 21:06:00,
2013-09-09 16:21:00,91.5,73.0,29.81,SW,216,3.0,6.0,55,0.00,,,0.00,weatherlink.com 1.10,2013-09-09 21:21:00,
2013-09-09 16:36:00,91.8,74.0,29.80,South,190,3.0,6.0,57,0.00,,,0.00,weatherlink.com 1.10,2013-09-09 21:36:00,
2013-09-09 16:51:00,91.3,73.0,29.80,SSW,213,3.0,6.0,56,0.00,,,0.00,weatherlink.com 1.10,2013-09-09 21:51:00,
2013-09-09 17:06:00,91.2,73.0,29.81,SSW,197,2.0,7.0,56,0.00,,,0.00,weatherlink.com 1.10,2013-09-09 22:06:00,
2013-09-09 17:21:00,91.0,74.0,29.81,SSW,202,3.0,6.0,57,0.00,,,0.00,weatherlink.com 1.10,2013-09-09 22:21:00,
2013-09-09 17:36:00,90.7,73.0,29.81,SSW,208,4.0,6.0,56,0.00,,,0.00,weatherlink.com 1.10,2013-09-09 22:36:00,
2013-09-09 17:51:00,90.5,72.0,29.80,South,190,4.0,8.0,54,0.00,,,0.00,weatherlink.com 1.10,2013-09-09 22:51:00,
2013-09-09 18:06:00,89.5,71.0,29.80,SSW,196,1.0,5.0,55,0.00,,,0.00,weatherlink.com 1.10,2013-09-09 23:06:00,
2013-09-09 18:21:00,88.7,71.0,29.81,SW,216,2.0,5.0,56,0.00,,,0.00,weatherlink.com 1.10,2013-09-09 23:21:00,
2013-09-09 18:36:00,88.0,71.0,29.81,SSW,202,2.0,3.0,57,0.00,,,0.00,weatherlink.com 1.10,2013-09-09 23:36:00,
2013-09-09 18:51:00,87.3,71.0,29.81,SSW,208,1.0,3.0,58,0.00,,,0.00,weatherlink.com 1.10,2013-09-09 23:51:00,
2013-09-09 19:06:00,86.5,70.0,29.82,SSW,207,0.0,1.0,59,0.00,,,0.00,weatherlink.com 1.10,2013-09-10 00:06:00,
2013-09-09 19:21:00,85.0,70.0,29.82,SSE,159,3.0,4.0,62,0.00,,,0.00,weatherlink.com 1.10,2013-09-10 00:21:00,
2013-09-09 19:36:00,84.3,70.0,29.82,South,173,2.0,3.0,63,0.00,,,0.00,weatherlink.com 1.10,2013-09-10 00:36:00,
2013-09-09 19:51:00,83.4,71.0,29.82,SSW,192,2.0,4.0,66,0.00,,,0.00,weatherlink.com 1.10,2013-09-10 00:51:00,
2013-09-09 20:06:00,82.6,71.0,29.82,South,186,2.0,3.0,68,0.00,,,0.00,weatherlink.com 1.10,2013-09-10 01:06:00,
2013-09-09 20:21:00,82.2,71.0,29.83,South,188,1.0,3.0,69,0.00,,,0.00,weatherlink.com 1.10,2013-09-10 01:21:00,
2013-09-09 20:36:00,81.7,71.0,29.83,South,188,3.0,3.0,70,0.00,,,0.00,weatherlink.com 1.10,2013-09-10 01:36:00,
2013-09-09 20:51:00,81.3,71.0,29.83,South,185,2.0,4.0,71,0.00,,,0.00,weatherlink.com 1.10,2013-09-10 01:51:00,
2013-09-09 21:06:00,80.6,71.0,29.84,South,190,3.0,4.0,73,0.00,,,0.00,weatherlink.com 1.10,2013-09-10 02:06:00,
2013-09-09 21:21:00,80.5,72.0,29.84,South,190,3.0,4.0,74,0.00,,,0.00,weatherlink.com 1.10,2013-09-10 02:21:00,
2013-09-09 21:36:00,80.1,72.0,29.84,SSW,195,1.0,5.0,75,0.00,,,0.00,weatherlink.com 1.10,2013-09-10 02:36:00,
2013-09-09 21:51:00,79.6,71.0,29.84,South,183,3.0,3.0,76,0.00,,,0.00,weatherlink.com 1.10,2013-09-10 02:51:00,
2013-09-09 22:06:00,79.0,72.0,29.84,South,190,1.0,3.0,78,0.00,,,0.00,weatherlink.com 1.10,2013-09-10 03:06:00,
2013-09-09 22:21:00,78.9,72.0,29.85,SSW,193,2.0,3.0,78,0.00,,,0.00,weatherlink.com 1.10,2013-09-10 03:21:00,
2013-09-09 22:36:00,78.8,71.0,29.85,SSW,207,1.0,4.0,78,0.00,,,0.00,weatherlink.com 1.10,2013-09-10 03:36:00,
2013-09-09 22:51:00,78.5,71.0,29.86,SSW,199,1.0,3.0,78,0.00,,,0.00,weatherlink.com 1.10,2013-09-10 03:51:00,
2013-09-09 23:06:00,78.1,71.0,29.86,SSW,196,2.0,3.0,78,0.00,,,0.00,weatherlink.com 1.10,2013-09-10 04:06:00,
2013-09-09 23:21:00,78.0,70.0,29.86,SSW,208,0.0,3.0,77,0.00,,,0.00,weatherlink.com 1.10,2013-09-10 04:21:00,
2013-09-09 23:36:00,77.7,70.0,29.86,SSW,208,1.0,2.0,76,0.00,,,0.00,weatherlink.com 1.10,2013-09-10 04:36:00,
2013-09-09 23:51:00,77.7,69.0,29.86,SSW,196,0.0,2.0,74,0.00,,,0.00,weatherlink.com 1.10,2013-09-10 04:51:00,